sensor_id;sensor_type;location;lat;lon;timestamp;pressure;altitude;pressure_sealevel;temperature;humidity
58018;BME280;43810;50.860;19.226;2023-02-15T00:01:35;100341.06;;;3.77;77.17
58018;BME280;43810;50.860;19.226;2023-02-15T00:04:02;100335.97;;;3.71;77.45
58018;BME280;43810;50.860;19.226;2023-02-15T00:06:28;100333.44;;;3.76;77.48
58018;BME280;43810;50.860;19.226;2023-02-15T00:08:55;100342.81;;;3.88;77.17
58018;BME280;43810;50.860;19.226;2023-02-15T00:11:21;100343.53;;;3.84;76.98
58018;BME280;43810;50.860;19.226;2023-02-15T00:14:07;100335.50;;;3.74;77.25
58018;BME280;43810;50.860;19.226;2023-02-15T00:16:34;100345.38;;;3.67;77.42
58018;BME280;43810;50.860;19.226;2023-02-15T00:19:00;100342.22;;;3.65;77.50
58018;BME280;43810;50.860;19.226;2023-02-15T00:21:28;100336.97;;;3.65;77.91
58018;BME280;43810;50.860;19.226;2023-02-15T00:23:56;100326.44;;;3.65;77.91
58018;BME280;43810;50.860;19.226;2023-02-15T00:26:22;100328.28;;;3.64;77.90
58018;BME280;43810;50.860;19.226;2023-02-15T00:28:48;100329.13;;;3.70;77.74
58018;BME280;43810;50.860;19.226;2023-02-15T00:31:14;100318.75;;;3.80;77.52
58018;BME280;43810;50.860;19.226;2023-02-15T00:33:40;100314.72;;;3.72;77.28
58018;BME280;43810;50.860;19.226;2023-02-15T00:36:08;100319.25;;;3.77;77.03
58018;BME280;43810;50.860;19.226;2023-02-15T00:38:35;100305.16;;;3.66;77.29
58018;BME280;43810;50.860;19.226;2023-02-15T00:41:03;100306.44;;;3.64;77.26
58018;BME280;43810;50.860;19.226;2023-02-15T00:43:30;100300.69;;;3.67;76.99
58018;BME280;43810;50.860;19.226;2023-02-15T00:45:57;100305.25;;;3.71;76.91
58018;BME280;43810;50.860;19.226;2023-02-15T00:48:23;100305.72;;;3.68;77.03
58018;BME280;43810;50.860;19.226;2023-02-15T00:50:54;100304.91;;;3.68;77.05
58018;BME280;43810;50.860;19.226;2023-02-15T00:53:20;100306.97;;;3.66;77.13
58018;BME280;43810;50.860;19.226;2023-02-15T00:55:47;100309.84;;;3.81;76.89
58018;BME280;43810;50.860;19.226;2023-02-15T00:58:14;100307.06;;;3.71;77.07
58018;BME280;43810;50.860;19.226;2023-02-15T01:00:42;100306.22;;;3.65;77.04
58018;BME280;43810;50.860;19.226;2023-02-15T01:03:09;100293.31;;;3.64;77.56
58018;BME280;43810;50.860;19.226;2023-02-15T01:05:35;100287.72;;;3.60;77.54
58018;BME280;43810;50.860;19.226;2023-02-15T01:08:01;100287.91;;;3.53;77.97
58018;BME280;43810;50.860;19.226;2023-02-15T01:10:28;100282.66;;;3.53;77.98
58018;BME280;43810;50.860;19.226;2023-02-15T01:12:55;100276.19;;;3.44;78.35
58018;BME280;43810;50.860;19.226;2023-02-15T01:15:22;100285.28;;;3.53;77.66
58018;BME280;43810;50.860;19.226;2023-02-15T01:17:48;100277.44;;;3.59;77.78
58018;BME280;43810;50.860;19.226;2023-02-15T01:20:22;100281.19;;;3.46;78.06
58018;BME280;43810;50.860;19.226;2023-02-15T01:22:48;100280.09;;;3.42;78.20
58018;BME280;43810;50.860;19.226;2023-02-15T01:25:20;100279.84;;;3.43;78.17
58018;BME280;43810;50.860;19.226;2023-02-15T01:27:46;100274.75;;;3.37;78.58
58018;BME280;43810;50.860;19.226;2023-02-15T01:30:13;100273.34;;;3.29;78.48
58018;BME280;43810;50.860;19.226;2023-02-15T01:32:40;100270.63;;;3.24;78.79
58018;BME280;43810;50.860;19.226;2023-02-15T01:35:06;100266.56;;;3.33;78.35
58018;BME280;43810;50.860;19.226;2023-02-15T01:37:33;100265.44;;;3.46;78.09
58018;BME280;43810;50.860;19.226;2023-02-15T01:40:00;100256.03;;;3.33;78.16
58018;BME280;43810;50.860;19.226;2023-02-15T01:42:27;100253.72;;;3.20;78.82
58018;BME280;43810;50.860;19.226;2023-02-15T01:44:58;100245.94;;;3.25;78.88
58018;BME280;43810;50.860;19.226;2023-02-15T01:47:39;100248.34;;;3.27;78.66
58018;BME280;43810;50.860;19.226;2023-02-15T01:50:49;100247.53;;;3.26;78.70
58018;BME280;43810;50.860;19.226;2023-02-15T01:52:56;100242.28;;;3.26;78.71
58018;BME280;43810;50.860;19.226;2023-02-15T01:55:25;100243.66;;;3.29;78.58
58018;BME280;43810;50.860;19.226;2023-02-15T01:57:52;100242.34;;;3.31;78.66
58018;BME280;43810;50.860;19.226;2023-02-15T02:00:19;100241.09;;;3.17;78.99
58018;BME280;43810;50.860;19.226;2023-02-15T02:02:46;100239.34;;;3.23;79.09
58018;BME280;43810;50.860;19.226;2023-02-15T02:05:14;100226.53;;;3.26;78.73
58018;BME280;43810;50.860;19.226;2023-02-15T02:07:42;100232.47;;;3.22;78.92
58018;BME280;43810;50.860;19.226;2023-02-15T02:10:13;100227.00;;;3.23;79.08
58018;BME280;43810;50.860;19.226;2023-02-15T02:12:40;100222.72;;;3.17;79.37
58018;BME280;43810;50.860;19.226;2023-02-15T02:15:08;100213.41;;;3.26;78.90
58018;BME280;43810;50.860;19.226;2023-02-15T02:17:55;100214.09;;;3.22;79.43
58018;BME280;43810;50.860;19.226;2023-02-15T02:21:15;100216.25;;;3.08;79.82
58018;BME280;43810;50.860;19.226;2023-02-15T02:26:06;100208.38;;;3.08;80.25
58018;BME280;43810;50.860;19.226;2023-02-15T02:37:03;100190.25;;;3.06;79.81
58018;BME280;43810;50.860;19.226;2023-02-15T02:44:55;100188.25;;;2.97;80.77
58018;BME280;43810;50.860;19.226;2023-02-15T02:49:59;100197.19;;;2.96;80.76
58018;BME280;43810;50.860;19.226;2023-02-15T02:52:47;100197.56;;;2.88;80.33
58018;BME280;43810;50.860;19.226;2023-02-15T03:00:19;100190.22;;;2.90;80.59
58018;BME280;43810;50.860;19.226;2023-02-15T03:02:47;100191.94;;;2.96;80.70
58018;BME280;43810;50.860;19.226;2023-02-15T03:05:18;100182.19;;;2.96;80.42
58018;BME280;43810;50.860;19.226;2023-02-15T03:07:49;100180.28;;;2.75;81.08
58018;BME280;43810;50.860;19.226;2023-02-15T03:10:20;100185.75;;;2.57;81.81
58018;BME280;43810;50.860;19.226;2023-02-15T03:12:48;100192.50;;;2.53;81.96
58018;BME280;43810;50.860;19.226;2023-02-15T03:15:20;100191.41;;;2.49;82.28
58018;BME280;43810;50.860;19.226;2023-02-15T03:17:51;100200.22;;;2.59;82.28
58018;BME280;43810;50.860;19.226;2023-02-15T03:20:32;100196.19;;;2.68;81.92
58018;BME280;43810;50.860;19.226;2023-02-15T03:23:03;100192.94;;;2.61;81.92
58018;BME280;43810;50.860;19.226;2023-02-15T03:25:40;100196.03;;;2.75;81.91
58018;BME280;43810;50.860;19.226;2023-02-15T03:28:09;100200.81;;;2.78;81.33
58018;BME280;43810;50.860;19.226;2023-02-15T03:30:37;100192.22;;;2.83;81.48
58018;BME280;43810;50.860;19.226;2023-02-15T03:33:06;100196.19;;;2.85;81.44
58018;BME280;43810;50.860;19.226;2023-02-15T03:35:50;100195.81;;;2.93;81.02
58018;BME280;43810;50.860;19.226;2023-02-15T03:38:23;100203.38;;;2.90;80.74
58018;BME280;43810;50.860;19.226;2023-02-15T03:40:53;100189.13;;;2.86;81.24
58018;BME280;43810;50.860;19.226;2023-02-15T03:43:49;100185.28;;;2.76;81.24
58018;BME280;43810;50.860;19.226;2023-02-15T03:48:53;100195.56;;;2.61;82.28
58018;BME280;43810;50.860;19.226;2023-02-15T03:51:22;100206.41;;;2.53;82.55
58018;BME280;43810;50.860;19.226;2023-02-15T03:54:09;100203.50;;;2.66;82.33
58018;BME280;43810;50.860;19.226;2023-02-15T03:56:38;100195.38;;;2.68;81.84
58018;BME280;43810;50.860;19.226;2023-02-15T03:59:05;100201.91;;;2.65;81.75
58018;BME280;43810;50.860;19.226;2023-02-15T04:02:17;100200.38;;;2.53;82.10
58018;BME280;43810;50.860;19.226;2023-02-15T04:04:47;100205.66;;;2.41;82.59
58018;BME280;43810;50.860;19.226;2023-02-15T04:07:13;100211.25;;;2.44;82.65
58018;BME280;43810;50.860;19.226;2023-02-15T04:09:39;100207.31;;;2.30;83.50
58018;BME280;43810;50.860;19.226;2023-02-15T04:12:23;100200.81;;;2.33;83.58
58018;BME280;43810;50.860;19.226;2023-02-15T04:14:49;100204.06;;;2.40;83.04
58018;BME280;43810;50.860;19.226;2023-02-15T04:17:36;100197.72;;;2.36;83.31
58018;BME280;43810;50.860;19.226;2023-02-15T04:20:02;100198.06;;;2.28;83.29
58018;BME280;43810;50.860;19.226;2023-02-15T04:22:47;100192.19;;;2.21;83.84
58018;BME280;43810;50.860;19.226;2023-02-15T04:25:32;100197.00;;;2.12;83.94
58018;BME280;43810;50.860;19.226;2023-02-15T04:27:57;100198.56;;;2.25;83.95
58018;BME280;43810;50.860;19.226;2023-02-15T04:30:25;100202.06;;;2.30;83.72
58018;BME280;43810;50.860;19.226;2023-02-15T04:32:50;100203.31;;;2.28;83.86
58018;BME280;43810;50.860;19.226;2023-02-15T04:35:17;100198.97;;;2.33;83.99
58018;BME280;43810;50.860;19.226;2023-02-15T04:37:43;100189.63;;;2.37;83.51
58018;BME280;43810;50.860;19.226;2023-02-15T04:40:12;100189.22;;;2.45;83.49
58018;BME280;43810;50.860;19.226;2023-02-15T04:42:38;100195.69;;;2.55;83.14
58018;BME280;43810;50.860;19.226;2023-02-15T04:45:04;100187.56;;;2.56;82.73
58018;BME280;43810;50.860;19.226;2023-02-15T04:47:30;100190.19;;;2.56;82.86
58018;BME280;43810;50.860;19.226;2023-02-15T04:49:56;100184.78;;;2.63;82.70
58018;BME280;43810;50.860;19.226;2023-02-15T04:52:22;100182.16;;;2.63;82.88
58018;BME280;43810;50.860;19.226;2023-02-15T04:54:48;100193.22;;;2.65;82.42
58018;BME280;43810;50.860;19.226;2023-02-15T04:57:14;100197.13;;;2.62;82.43
58018;BME280;43810;50.860;19.226;2023-02-15T04:59:40;100197.13;;;2.62;82.63
58018;BME280;43810;50.860;19.226;2023-02-15T05:02:05;100189.56;;;2.66;82.51
58018;BME280;43810;50.860;19.226;2023-02-15T05:04:31;100199.03;;;2.67;82.36
58018;BME280;43810;50.860;19.226;2023-02-15T05:06:57;100208.28;;;2.69;82.09
58018;BME280;43810;50.860;19.226;2023-02-15T05:09:23;100208.47;;;2.51;82.85
58018;BME280;43810;50.860;19.226;2023-02-15T05:11:49;100207.06;;;2.32;82.93
58018;BME280;43810;50.860;19.226;2023-02-15T05:14:15;100202.56;;;2.16;83.71
58018;BME280;43810;50.860;19.226;2023-02-15T05:16:41;100199.28;;;2.08;83.89
58018;BME280;43810;50.860;19.226;2023-02-15T05:19:07;100208.75;;;2.09;84.59
58018;BME280;43810;50.860;19.226;2023-02-15T05:21:33;100200.22;;;2.02;84.59
58018;BME280;43810;50.860;19.226;2023-02-15T05:23:59;100197.81;;;2.13;84.57
58018;BME280;43810;50.860;19.226;2023-02-15T05:26:24;100199.72;;;2.17;84.18
58018;BME280;43810;50.860;19.226;2023-02-15T05:29:10;100191.16;;;2.22;83.96
58018;BME280;43810;50.860;19.226;2023-02-15T05:31:36;100187.03;;;2.26;83.77
58018;BME280;43810;50.860;19.226;2023-02-15T05:34:02;100182.22;;;2.34;83.80
58018;BME280;43810;50.860;19.226;2023-02-15T05:36:28;100192.53;;;2.41;83.30
58018;BME280;43810;50.860;19.226;2023-02-15T05:38:55;100189.91;;;2.24;83.93
58018;BME280;43810;50.860;19.226;2023-02-15T05:41:21;100187.97;;;2.20;84.17
58018;BME280;43810;50.860;19.226;2023-02-15T05:43:47;100183.69;;;2.30;84.19
58018;BME280;43810;50.860;19.226;2023-02-15T05:46:13;100180.31;;;2.18;84.39
58018;BME280;43810;50.860;19.226;2023-02-15T05:48:39;100182.50;;;2.21;84.52
58018;BME280;43810;50.860;19.226;2023-02-15T05:51:10;100183.94;;;2.29;84.22
58018;BME280;43810;50.860;19.226;2023-02-15T05:53:39;100182.25;;;2.23;84.33
58018;BME280;43810;50.860;19.226;2023-02-15T05:56:06;100182.59;;;2.26;84.16
58018;BME280;43810;50.860;19.226;2023-02-15T05:58:38;100184.88;;;2.23;84.19
58018;BME280;43810;50.860;19.226;2023-02-15T06:01:15;100187.03;;;2.26;84.20
58018;BME280;43810;50.860;19.226;2023-02-15T06:03:43;100190.50;;;2.15;83.83
58018;BME280;43810;50.860;19.226;2023-02-15T06:06:09;100192.41;;;2.19;84.26
58018;BME280;43810;50.860;19.226;2023-02-15T06:08:36;100185.59;;;2.06;84.45
58018;BME280;43810;50.860;19.226;2023-02-15T06:11:04;100195.63;;;2.09;84.68
58018;BME280;43810;50.860;19.226;2023-02-15T06:13:30;100190.88;;;1.95;84.86
58018;BME280;43810;50.860;19.226;2023-02-15T06:15:56;100180.88;;;1.92;85.25
58018;BME280;43810;50.860;19.226;2023-02-15T06:18:22;100191.03;;;1.88;85.31
58018;BME280;43810;50.860;19.226;2023-02-15T06:20:48;100184.75;;;1.89;85.32
58018;BME280;43810;50.860;19.226;2023-02-15T06:23:15;100188.19;;;1.90;85.52
58018;BME280;43810;50.860;19.226;2023-02-15T06:25:40;100184.03;;;1.94;85.60
58018;BME280;43810;50.860;19.226;2023-02-15T06:28:06;100181.72;;;1.81;85.76
58018;BME280;43810;50.860;19.226;2023-02-15T06:30:32;100184.78;;;1.78;86.32
58018;BME280;43810;50.860;19.226;2023-02-15T06:32:58;100181.38;;;1.77;86.24
58018;BME280;43810;50.860;19.226;2023-02-15T06:35:24;100186.00;;;1.87;86.43
58018;BME280;43810;50.860;19.226;2023-02-15T06:37:50;100184.75;;;1.89;86.14
58018;BME280;43810;50.860;19.226;2023-02-15T06:40:16;100179.59;;;1.94;85.95
58018;BME280;43810;50.860;19.226;2023-02-15T06:42:42;100185.78;;;1.88;85.75
58018;BME280;43810;50.860;19.226;2023-02-15T06:45:08;100179.84;;;1.81;86.38
58018;BME280;43810;50.860;19.226;2023-02-15T06:47:35;100185.63;;;1.95;85.96
58018;BME280;43810;50.860;19.226;2023-02-15T06:50:01;100183.25;;;1.93;86.13
58018;BME280;43810;50.860;19.226;2023-02-15T06:52:27;100184.63;;;1.96;86.15
58018;BME280;43810;50.860;19.226;2023-02-15T06:54:53;100184.34;;;2.09;86.06
58018;BME280;43810;50.860;19.226;2023-02-15T06:57:19;100185.84;;;2.05;85.58
58018;BME280;43810;50.860;19.226;2023-02-15T06:59:45;100189.94;;;2.13;85.72
58018;BME280;43810;50.860;19.226;2023-02-15T07:02:11;100192.41;;;2.19;85.43
58018;BME280;43810;50.860;19.226;2023-02-15T07:04:37;100180.56;;;2.17;84.99
58018;BME280;43810;50.860;19.226;2023-02-15T07:07:04;100176.91;;;2.18;85.06
58018;BME280;43810;50.860;19.226;2023-02-15T07:09:33;100181.31;;;2.00;85.26
58018;BME280;43810;50.860;19.226;2023-02-15T07:11:58;100180.78;;;1.87;85.58
58018;BME280;43810;50.860;19.226;2023-02-15T07:14:43;100182.94;;;1.90;85.85
58018;BME280;43810;50.860;19.226;2023-02-15T07:17:09;100183.75;;;1.79;86.25
58018;BME280;43810;50.860;19.226;2023-02-15T07:19:35;100174.72;;;1.86;86.23
58018;BME280;43810;50.860;19.226;2023-02-15T07:22:02;100170.53;;;1.85;86.41
58018;BME280;43810;50.860;19.226;2023-02-15T07:24:29;100177.47;;;1.91;86.39
58018;BME280;43810;50.860;19.226;2023-02-15T07:26:55;100160.34;;;2.00;86.29
58018;BME280;43810;50.860;19.226;2023-02-15T07:29:20;100175.09;;;2.18;85.61
58018;BME280;43810;50.860;19.226;2023-02-15T07:31:46;100172.53;;;1.95;85.93
58018;BME280;43810;50.860;19.226;2023-02-15T07:34:12;100170.97;;;1.82;86.35
58018;BME280;43810;50.860;19.226;2023-02-15T07:36:38;100173.25;;;1.90;86.59
58018;BME280;43810;50.860;19.226;2023-02-15T07:39:04;100173.53;;;2.05;86.33
58018;BME280;43810;50.860;19.226;2023-02-15T07:41:29;100169.94;;;2.23;85.87
58018;BME280;43810;50.860;19.226;2023-02-15T07:43:55;100158.81;;;2.04;85.66
58018;BME280;43810;50.860;19.226;2023-02-15T07:46:21;100161.97;;;1.90;86.24
58018;BME280;43810;50.860;19.226;2023-02-15T07:48:47;100158.31;;;1.91;86.21
58018;BME280;43810;50.860;19.226;2023-02-15T07:51:13;100154.53;;;1.98;86.05
58018;BME280;43810;50.860;19.226;2023-02-15T07:53:40;100155.66;;;2.02;86.25
58018;BME280;43810;50.860;19.226;2023-02-15T07:56:10;100153.13;;;2.07;86.50
58018;BME280;43810;50.860;19.226;2023-02-15T07:58:36;100157.16;;;1.98;86.36
58018;BME280;43810;50.860;19.226;2023-02-15T08:01:19;100147.84;;;1.91;86.41
58018;BME280;43810;50.860;19.226;2023-02-15T08:03:45;100146.31;;;1.95;86.49
58018;BME280;43810;50.860;19.226;2023-02-15T08:06:11;100150.28;;;2.09;86.60
58018;BME280;43810;50.860;19.226;2023-02-15T08:08:39;100139.63;;;2.16;85.94
58018;BME280;43810;50.860;19.226;2023-02-15T08:11:28;100136.53;;;2.19;85.73
58018;BME280;43810;50.860;19.226;2023-02-15T08:16:42;100142.00;;;2.00;86.26
58018;BME280;43810;50.860;19.226;2023-02-15T08:21:45;100130.19;;;2.15;86.30
58018;BME280;43810;50.860;19.226;2023-02-15T08:24:13;100140.69;;;2.15;86.02
58018;BME280;43810;50.860;19.226;2023-02-15T08:26:40;100136.53;;;2.19;86.13
58018;BME280;43810;50.860;19.226;2023-02-15T08:29:07;100140.06;;;2.24;85.92
58018;BME280;43810;50.860;19.226;2023-02-15T08:31:34;100133.34;;;2.17;86.08
58018;BME280;43810;50.860;19.226;2023-02-15T08:34:00;100138.81;;;2.27;86.33
58018;BME280;43810;50.860;19.226;2023-02-15T08:36:29;100134.09;;;2.29;85.56
58018;BME280;43810;50.860;19.226;2023-02-15T08:38:58;100136.38;;;2.37;85.60
58018;BME280;43810;50.860;19.226;2023-02-15T08:41:29;100126.00;;;2.30;85.72
58018;BME280;43810;50.860;19.226;2023-02-15T08:44:00;100125.06;;;2.36;85.69
58018;BME280;43810;50.860;19.226;2023-02-15T08:46:32;100126.59;;;2.49;85.50
58018;BME280;43810;50.860;19.226;2023-02-15T08:48:58;100130.31;;;2.53;84.84
58018;BME280;43810;50.860;19.226;2023-02-15T08:51:27;100130.34;;;2.70;84.38
58018;BME280;43810;50.860;19.226;2023-02-15T08:53:56;100131.53;;;2.79;84.40
58018;BME280;43810;50.860;19.226;2023-02-15T08:56:28;100123.66;;;2.79;84.41
58018;BME280;43810;50.860;19.226;2023-02-15T08:58:55;100120.34;;;2.84;84.03
58018;BME280;43810;50.860;19.226;2023-02-15T09:01:25;100116.41;;;2.86;83.78
58018;BME280;43810;50.860;19.226;2023-02-15T09:03:56;100118.31;;;2.91;83.38
58018;BME280;43810;50.860;19.226;2023-02-15T09:06:22;100113.00;;;2.86;83.21
58018;BME280;43810;50.860;19.226;2023-02-15T09:08:49;100110.78;;;2.77;83.25
58018;BME280;43810;50.860;19.226;2023-02-15T09:11:18;100117.16;;;2.81;83.85
58018;BME280;43810;50.860;19.226;2023-02-15T09:13:50;100111.97;;;2.70;83.93
58018;BME280;43810;50.860;19.226;2023-02-15T09:16:17;100116.81;;;2.78;83.78
58018;BME280;43810;50.860;19.226;2023-02-15T09:18:43;100111.34;;;2.79;84.01
58018;BME280;43810;50.860;19.226;2023-02-15T09:21:14;100107.56;;;3.09;83.30
58018;BME280;43810;50.860;19.226;2023-02-15T09:23:44;100105.81;;;3.14;83.12
58018;BME280;43810;50.860;19.226;2023-02-15T09:26:16;100109.91;;;3.27;81.95
58018;BME280;43810;50.860;19.226;2023-02-15T09:28:42;100107.41;;;3.15;81.82
58018;BME280;43810;50.860;19.226;2023-02-15T09:31:18;100106.94;;;3.02;82.60
58018;BME280;43810;50.860;19.226;2023-02-15T09:33:45;100099.97;;;2.91;83.59
58018;BME280;43810;50.860;19.226;2023-02-15T09:36:30;100103.59;;;3.06;82.90
58018;BME280;43810;50.860;19.226;2023-02-15T09:38:59;100094.84;;;3.39;82.42
58018;BME280;43810;50.860;19.226;2023-02-15T09:41:50;100098.44;;;3.33;81.37
58018;BME280;43810;50.860;19.226;2023-02-15T09:49:50;100103.50;;;3.18;81.76
58018;BME280;43810;50.860;19.226;2023-02-15T09:58:05;100086.75;;;3.68;80.70
58018;BME280;43810;50.860;19.226;2023-02-15T10:01:10;100082.31;;;3.68;79.66
58018;BME280;43810;50.860;19.226;2023-02-15T10:15:07;100072.94;;;4.04;79.31
58018;BME280;43810;50.860;19.226;2023-02-15T10:20:37;100064.47;;;3.97;79.71
58018;BME280;43810;50.860;19.226;2023-02-15T10:26:26;100063.88;;;4.17;79.47
58018;BME280;43810;50.860;19.226;2023-02-15T10:29:03;100055.44;;;4.47;77.56
58018;BME280;43810;50.860;19.226;2023-02-15T10:34:17;100060.59;;;5.11;75.81
58018;BME280;43810;50.860;19.226;2023-02-15T10:45:31;100033.53;;;5.25;74.27
58018;BME280;43810;50.860;19.226;2023-02-15T11:07:23;100024.16;;;5.60;72.25
58018;BME280;43810;50.860;19.226;2023-02-15T11:10:05;100008.94;;;5.92;71.63
58018;BME280;43810;50.860;19.226;2023-02-15T11:12:37;100006.56;;;5.91;72.11
58018;BME280;43810;50.860;19.226;2023-02-15T11:15:35;100000.47;;;5.90;72.34
58018;BME280;43810;50.860;19.226;2023-02-15T11:18:09;99999.16;;;5.93;71.01
58018;BME280;43810;50.860;19.226;2023-02-15T11:20:52;99999.41;;;5.86;71.88
58018;BME280;43810;50.860;19.226;2023-02-15T11:23:20;99998.91;;;5.99;72.09
58018;BME280;43810;50.860;19.226;2023-02-15T11:25:59;99983.09;;;6.04;72.23
58018;BME280;43810;50.860;19.226;2023-02-15T11:28:31;99966.47;;;5.94;72.03
58018;BME280;43810;50.860;19.226;2023-02-15T11:31:11;99981.75;;;5.92;72.50
58018;BME280;43810;50.860;19.226;2023-02-15T11:33:43;99972.78;;;5.88;72.15
58018;BME280;43810;50.860;19.226;2023-02-15T11:36:17;99971.72;;;5.99;71.93
58018;BME280;43810;50.860;19.226;2023-02-15T11:38:46;99964.59;;;6.09;72.32
58018;BME280;43810;50.860;19.226;2023-02-15T11:41:21;99964.88;;;6.08;72.02
58018;BME280;43810;50.860;19.226;2023-02-15T11:44:26;99969.63;;;6.41;71.49
58018;BME280;43810;50.860;19.226;2023-02-15T11:46:52;99958.25;;;6.31;70.14
58018;BME280;43810;50.860;19.226;2023-02-15T11:49:31;99955.34;;;6.53;70.66
58018;BME280;43810;50.860;19.226;2023-02-15T11:51:58;99960.09;;;6.35;70.58
58018;BME280;43810;50.860;19.226;2023-02-15T11:54:29;99944.53;;;6.39;70.04
58018;BME280;43810;50.860;19.226;2023-02-15T11:59:55;99938.38;;;6.69;69.65
58018;BME280;43810;50.860;19.226;2023-02-15T12:02:23;99938.34;;;6.79;69.33
58018;BME280;43810;50.860;19.226;2023-02-15T12:04:57;99926.44;;;6.81;68.46
58018;BME280;43810;50.860;19.226;2023-02-15T12:07:28;99931.47;;;6.83;69.10
58018;BME280;43810;50.860;19.226;2023-02-15T12:10:23;99932.81;;;6.75;69.23
58018;BME280;43810;50.860;19.226;2023-02-15T12:15:35;99922.94;;;7.06;69.07
58018;BME280;43810;50.860;19.226;2023-02-15T12:18:02;99912.38;;;7.06;68.48
58018;BME280;43810;50.860;19.226;2023-02-15T12:20:31;99900.66;;;7.23;68.02
58018;BME280;43810;50.860;19.226;2023-02-15T12:23:08;99905.97;;;7.23;68.13
58018;BME280;43810;50.860;19.226;2023-02-15T12:25:54;99895.41;;;7.12;68.59
58018;BME280;43810;50.860;19.226;2023-02-15T12:28:30;99893.81;;;7.22;67.21
58018;BME280;43810;50.860;19.226;2023-02-15T12:30:57;99896.69;;;7.64;66.68
58018;BME280;43810;50.860;19.226;2023-02-15T12:33:40;99882.50;;;7.84;66.56
58018;BME280;43810;50.860;19.226;2023-02-15T12:36:46;99886.38;;;8.20;64.38
58018;BME280;43810;50.860;19.226;2023-02-15T12:41:46;99887.72;;;9.08;63.06
58018;BME280;43810;50.860;19.226;2023-02-15T12:44:27;99880.44;;;9.19;61.58
58018;BME280;43810;50.860;19.226;2023-02-15T12:49:33;99874.72;;;9.30;60.68
58018;BME280;43810;50.860;19.226;2023-02-15T12:52:01;99868.16;;;8.85;61.14
58018;BME280;43810;50.860;19.226;2023-02-15T12:54:42;99868.03;;;9.14;61.09
58018;BME280;43810;50.860;19.226;2023-02-15T12:57:25;99863.66;;;9.23;60.67
58018;BME280;43810;50.860;19.226;2023-02-15T12:59:59;99861.28;;;9.59;59.41
58018;BME280;43810;50.860;19.226;2023-02-15T13:02:41;99858.50;;;9.83;58.17
58018;BME280;43810;50.860;19.226;2023-02-15T13:07:45;99844.78;;;10.63;54.95
58018;BME280;43810;50.860;19.226;2023-02-15T13:10:33;99849.09;;;10.87;53.70
58018;BME280;43810;50.860;19.226;2023-02-15T13:13:00;99847.06;;;11.42;53.23
58018;BME280;43810;50.860;19.226;2023-02-15T13:15:35;99846.88;;;11.83;51.47
58018;BME280;43810;50.860;19.226;2023-02-15T13:18:04;99851.31;;;12.27;49.96
58018;BME280;43810;50.860;19.226;2023-02-15T13:20:34;99849.72;;;12.17;50.00
58018;BME280;43810;50.860;19.226;2023-02-15T13:23:08;99852.72;;;11.94;49.87
58018;BME280;43810;50.860;19.226;2023-02-15T13:25:44;99848.34;;;11.98;49.85
58018;BME280;43810;50.860;19.226;2023-02-15T13:28:18;99838.22;;;12.08;49.71
58018;BME280;43810;50.860;19.226;2023-02-15T13:30:47;99844.63;;;12.47;49.58
58018;BME280;43810;50.860;19.226;2023-02-15T13:33:34;99839.78;;;12.57;48.91
58018;BME280;43810;50.860;19.226;2023-02-15T13:36:10;99836.09;;;12.28;49.79
58018;BME280;43810;50.860;19.226;2023-02-15T13:41:17;99831.88;;;12.35;49.15
58018;BME280;43810;50.860;19.226;2023-02-15T13:49:57;99817.63;;;11.92;50.84
58018;BME280;43810;50.860;19.226;2023-02-15T13:52:28;99814.75;;;11.79;50.83
58018;BME280;43810;50.860;19.226;2023-02-15T14:01:01;99793.63;;;12.31;49.85
58018;BME280;43810;50.860;19.226;2023-02-15T14:15:03;99787.97;;;12.24;50.20
58018;BME280;43810;50.860;19.226;2023-02-15T14:17:59;99795.47;;;12.13;49.78
58018;BME280;43810;50.860;19.226;2023-02-15T14:23:15;99784.91;;;12.00;50.45
58018;BME280;43810;50.860;19.226;2023-02-15T14:25:49;99784.47;;;12.06;49.84
58018;BME280;43810;50.860;19.226;2023-02-15T14:28:19;99779.81;;;11.81;50.61
58018;BME280;43810;50.860;19.226;2023-02-15T14:30:49;99779.56;;;11.60;51.52
58018;BME280;43810;50.860;19.226;2023-02-15T14:33:39;99771.38;;;11.48;51.50
58018;BME280;43810;50.860;19.226;2023-02-15T14:36:08;99768.94;;;11.60;51.45
58018;BME280;43810;50.860;19.226;2023-02-15T14:41:50;99768.34;;;9.78;58.34
58018;BME280;43810;50.860;19.226;2023-02-15T14:47:08;99770.50;;;9.11;60.91
58018;BME280;43810;50.860;19.226;2023-02-15T14:49:39;99764.16;;;8.75;62.16
58018;BME280;43810;50.860;19.226;2023-02-15T14:52:10;99765.50;;;8.35;63.92
58018;BME280;43810;50.860;19.226;2023-02-15T14:59:45;99765.03;;;7.56;66.58
58018;BME280;43810;50.860;19.226;2023-02-15T15:02:21;99759.50;;;7.24;67.85
58018;BME280;43810;50.860;19.226;2023-02-15T15:07:56;99757.13;;;6.83;70.08
58018;BME280;43810;50.860;19.226;2023-02-15T15:12:50;99757.13;;;6.83;69.79
58018;BME280;43810;50.860;19.226;2023-02-15T15:18:04;99747.56;;;6.48;71.11
58018;BME280;43810;50.860;19.226;2023-02-15T15:26:21;99748.22;;;6.25;71.72
58018;BME280;43810;50.860;19.226;2023-02-15T15:31:30;99746.97;;;6.02;72.14
58018;BME280;43810;50.860;19.226;2023-02-15T15:42:30;99748.69;;;5.32;74.97
58018;BME280;43810;50.860;19.226;2023-02-15T15:50:20;99755.56;;;5.08;75.71
58018;BME280;43810;50.860;19.226;2023-02-15T15:52:50;99740.53;;;4.88;76.35
58018;BME280;43810;50.860;19.226;2023-02-15T15:55:20;99739.44;;;4.74;76.79
58018;BME280;43810;50.860;19.226;2023-02-15T15:57:52;99743.13;;;4.57;76.94
58018;BME280;43810;50.860;19.226;2023-02-15T16:03:21;99743.81;;;4.22;77.99
58018;BME280;43810;50.860;19.226;2023-02-15T16:05:47;99732.72;;;4.15;78.38
58018;BME280;43810;50.860;19.226;2023-02-15T16:08:35;99738.69;;;3.96;79.07
58018;BME280;43810;50.860;19.226;2023-02-15T16:11:13;99736.28;;;3.84;79.64